Time;durP1;ratioP1;P1;durP2;ratioP2;P2;SDS_P1;SDS_P2;PMS_P1;PMS_P2;Temp;Humidity;BMP_temperature;BMP_pressure;BME280_temperature;BME280_humidity;BME280_pressure;Samples;Min_cycle;Max_cycle;Signal;HPM_P1;HPM_P2
2022/05/16 00:01:12;;;;;;;37.73;34.63;;;12.10;76.40;;;;;;4849631;29;20564;-67
2022/05/16 00:03:38;;;;;;;28.30;26.00;;;12.00;76.60;;;;;;4812296;29;20051;-67
2022/05/16 00:06:04;;;;;;;41.03;38.10;;;12.00;76.60;;;;;;4818114;29;20133;-67
2022/05/16 00:08:30;;;;;;;28.17;25.80;;;12.00;76.70;;;;;;4846011;29;20046;-67
2022/05/16 00:10:56;;;;;;;32.20;29.50;;;12.10;76.60;;;;;;4812506;29;20379;-67
2022/05/16 00:13:22;;;;;;;21.38;19.48;;;12.10;76.50;;;;;;4817736;29;20114;-67
2022/05/16 00:15:48;;;;;;;18.67;15.33;;;12.10;76.50;;;;;;4817331;29;20045;-67
2022/05/16 00:18:14;;;;;;;42.90;39.97;;;12.00;76.50;;;;;;4832952;29;20053;-67
2022/05/16 00:20:40;;;;;;;29.33;26.93;;;12.00;76.50;;;;;;4836054;29;20495;-67
2022/05/16 00:23:05;;;;;;;33.05;30.83;;;12.00;76.50;;;;;;4820189;29;20393;-67
2022/05/16 00:25:31;;;;;;;34.97;32.30;;;12.10;76.30;;;;;;4851548;29;20054;-67
2022/05/16 00:27:57;;;;;;;29.13;27.17;;;12.00;76.40;;;;;;4848992;29;20158;-67
2022/05/16 00:30:23;;;;;;;51.90;48.60;;;12.00;76.40;;;;;;4825774;29;20042;-67
2022/05/16 00:32:49;;;;;;;56.45;52.47;;;12.00;76.50;;;;;;4813757;29;20768;-67
2022/05/16 00:35:18;;;;;;;26.48;24.23;;;12.10;76.50;;;;;;4804472;29;20042;-67
2022/05/16 00:37:44;;;;;;;30.42;27.83;;;12.10;76.20;;;;;;4848818;29;20045;-67
2022/05/16 00:40:11;;;;;;;38.53;36.03;;;12.10;76.10;;;;;;4800794;29;20131;-67
2022/05/16 00:42:37;;;;;;;45.67;42.30;;;12.10;76.20;;;;;;4796101;29;20043;-67
2022/05/16 00:45:05;;;;;;;33.25;31.05;;;12.20;76.00;;;;;;4804902;29;20042;-67
2022/05/16 00:47:31;;;;;;;49.53;46.25;;;12.20;75.90;;;;;;4821867;29;20062;-67
2022/05/16 00:49:57;;;;;;;51.53;48.10;;;12.20;75.80;;;;;;4837432;29;20114;-67
2022/05/16 00:52:29;;;;;;;41.03;38.35;;;12.20;75.60;;;;;;4839532;29;20054;-67
2022/05/16 00:55:00;;;;;;;53.70;50.00;;;12.10;75.70;;;;;;4835459;29;20122;-67
2022/05/16 00:57:33;;;;;;;28.10;25.33;;;12.20;75.70;;;;;;4832153;29;20453;-67
2022/05/16 01:00:07;;;;;;;34.00;31.75;;;12.20;75.60;;;;;;4810810;29;20057;-67
2022/05/16 01:05:19;;;;;;;31.02;28.55;;;12.10;75.70;;;;;;4827646;29;20052;-67
2022/05/16 01:07:45;;;;;;;38.63;36.00;;;12.10;75.60;;;;;;4820532;29;20424;-67
2022/05/16 01:10:16;;;;;;;28.17;26.08;;;12.10;75.70;;;;;;4816337;29;20538;-67
2022/05/16 01:12:44;;;;;;;39.63;36.97;;;12.00;76.00;;;;;;4817465;29;20070;-67
2022/05/16 01:15:28;;;;;;;54.97;51.20;;;12.00;75.90;;;;;;4799387;29;20043;-67
2022/05/16 01:17:54;;;;;;;29.27;27.05;;;12.10;75.90;;;;;;4832137;29;20129;-67
2022/05/16 01:20:20;;;;;;;50.73;47.70;;;12.10;75.70;;;;;;4835067;29;20137;-67
2022/05/16 01:22:50;;;;;;;37.78;35.22;;;12.10;75.70;;;;;;4819717;29;20057;-67
2022/05/16 01:25:18;;;;;;;45.47;42.30;;;12.10;75.60;;;;;;4860767;29;20046;-67
2022/05/16 01:27:47;;;;;;;36.97;34.47;;;12.10;75.70;;;;;;4818069;29;20058;-67
2022/05/16 01:30:14;;;;;;;27.08;25.10;;;12.00;75.70;;;;;;4813594;29;20077;-67
2022/05/16 01:32:40;;;;;;;53.40;49.83;;;12.00;75.80;;;;;;4816939;29;20110;-67
2022/05/16 01:35:07;;;;;;;24.70;22.67;;;12.00;76.10;;;;;;4803932;29;20132;-67
2022/05/16 01:40:17;;;;;;;42.30;39.38;;;12.00;75.90;;;;;;4820496;29;20325;-67
2022/05/16 01:42:42;;;;;;;32.67;30.17;;;11.90;76.00;;;;;;4832044;29;20133;-67
2022/05/16 01:45:08;;;;;;;24.70;22.70;;;11.90;76.00;;;;;;4821323;29;20050;-67
2022/05/16 01:47:34;;;;;;;37.30;34.40;;;11.90;75.80;;;;;;4801589;29;20571;-67
2022/05/16 01:50:00;;;;;;;27.00;25.10;;;11.80;76.20;;;;;;4819925;29;20467;-67
2022/05/16 01:52:26;;;;;;;27.83;25.73;;;11.80;76.40;;;;;;4847655;29;20201;-67
2022/05/16 01:54:52;;;;;;;33.90;31.55;;;11.80;76.40;;;;;;4802351;29;20042;-67
2022/05/16 01:57:17;;;;;;;46.30;43.03;;;11.80;76.60;;;;;;4848855;29;20054;-67
2022/05/16 01:59:43;;;;;;;27.60;25.67;;;11.80;76.80;;;;;;4823315;29;20046;-67
2022/05/16 02:02:09;;;;;;;39.73;36.87;;;11.80;76.90;;;;;;4804747;29;20130;-67
2022/05/16 02:04:35;;;;;;;23.90;22.00;;;11.80;76.90;;;;;;4827372;29;20049;-67
2022/05/16 02:07:01;;;;;;;37.07;34.67;;;11.80;76.70;;;;;;4822375;29;20065;-67
2022/05/16 02:09:26;;;;;;;22.57;20.57;;;11.80;76.60;;;;;;4860469;29;20081;-68
2022/05/16 02:11:52;;;;;;;31.87;29.87;;;11.80;76.60;;;;;;4829559;29;20049;-67
2022/05/16 02:14:18;;;;;;;25.07;23.00;;;11.80;76.30;;;;;;4818183;29;20125;-67
2022/05/16 02:16:44;;;;;;;30.23;28.33;;;11.80;76.20;;;;;;4829913;29;20138;-67
2022/05/16 02:19:09;;;;;;;38.37;35.90;;;11.80;76.10;;;;;;4826771;29;20068;-67
2022/05/16 02:27:04;;;;;;;42.90;40.03;;;11.70;75.90;;;;;;4822742;29;20046;-67
2022/05/16 02:29:29;;;;;;;18.40;17.07;;;11.80;75.60;;;;;;4824934;29;20038;-67
2022/05/16 02:31:55;;;;;;;22.20;20.70;;;11.80;75.30;;;;;;4819268;29;20038;-67
2022/05/16 02:34:21;;;;;;;23.83;22.10;;;11.80;75.00;;;;;;4817175;29;20045;-67
2022/05/16 02:36:47;;;;;;;14.27;13.07;;;11.80;75.00;;;;;;4847242;29;20115;-67
2022/05/16 02:39:14;;;;;;;23.03;21.37;;;11.80;74.70;;;;;;4832878;29;20121;-67
2022/05/16 02:41:40;;;;;;;38.78;36.45;;;11.80;74.60;;;;;;4848235;29;20050;-67
2022/05/16 02:44:06;;;;;;;14.63;12.93;;;11.80;74.40;;;;;;4815688;29;20423;-67
2022/05/16 02:46:31;;;;;;;22.70;20.80;;;11.90;74.20;;;;;;4826836;29;20042;-67
2022/05/16 02:48:58;;;;;;;33.20;31.00;;;11.80;74.30;;;;;;4810679;29;20286;-67
2022/05/16 02:51:24;;;;;;;16.10;14.63;;;11.80;74.20;;;;;;4819613;29;20504;-67
2022/05/16 02:53:50;;;;;;;12.02;10.93;;;11.80;74.20;;;;;;4809628;29;20348;-67
2022/05/16 02:56:16;;;;;;;22.50;20.90;;;11.80;74.10;;;;;;4823262;29;20054;-67
2022/05/16 02:58:43;;;;;;;14.77;13.43;;;11.80;74.20;;;;;;4822644;29;20062;-67
2022/05/16 03:01:12;;;;;;;22.10;20.13;;;11.70;74.10;;;;;;4821609;29;20055;-67
2022/05/16 03:03:39;;;;;;;15.68;12.60;;;11.80;74.10;;;;;;4824115;29;20054;-67
2022/05/16 03:06:05;;;;;;;13.95;10.05;;;11.70;73.90;;;;;;4830018;29;20055;-67
2022/05/16 03:08:31;;;;;;;10.43;9.20;;;11.70;73.90;;;;;;4828145;29;20050;-67
2022/05/16 03:10:57;;;;;;;18.30;17.10;;;11.70;73.70;;;;;;4832956;29;20038;-67
2022/05/16 03:13:23;;;;;;;26.20;24.10;;;11.70;73.60;;;;;;4836621;29;20131;-67
2022/05/16 03:15:50;;;;;;;14.68;13.23;;;11.70;73.50;;;;;;4799110;29;20125;-67
2022/05/16 03:18:16;;;;;;;14.90;13.60;;;11.70;73.40;;;;;;4824574;29;20050;-67
2022/05/16 03:20:42;;;;;;;24.60;22.85;;;11.70;73.40;;;;;;4839182;29;20198;-67
2022/05/16 03:23:08;;;;;;;26.33;24.63;;;11.70;73.40;;;;;;4843617;29;20133;-67
2022/05/16 03:25:34;;;;;;;19.50;18.00;;;11.70;73.30;;;;;;4848177;29;20058;-67
2022/05/16 03:28:00;;;;;;;14.37;11.27;;;11.70;73.20;;;;;;4833518;29;20098;-67
2022/05/16 03:30:26;;;;;;;15.90;14.53;;;11.70;73.00;;;;;;4832553;29;20354;-67
2022/05/16 03:32:52;;;;;;;14.30;11.40;;;11.70;73.20;;;;;;4823589;29;20054;-67
2022/05/16 03:35:18;;;;;;;12.70;11.37;;;11.60;73.30;;;;;;4815095;29;20053;-67
2022/05/16 03:37:44;;;;;;;19.20;17.70;;;11.60;73.40;;;;;;4821967;29;20151;-67
2022/05/16 03:42:55;;;;;;;21.48;19.60;;;11.60;73.60;;;;;;4820886;29;20094;-67
2022/05/16 03:45:21;;;;;;;13.63;12.33;;;11.50;73.70;;;;;;4818004;29;20054;-67
2022/05/16 03:47:47;;;;;;;11.47;10.27;;;11.50;73.60;;;;;;4821152;29;20077;-67
2022/05/16 03:50:14;;;;;;;10.37;9.23;;;11.50;73.60;;;;;;4803795;29;20077;-67
2022/05/16 03:52:40;;;;;;;15.15;13.82;;;11.50;73.60;;;;;;4818304;29;20057;-67
2022/05/16 03:55:15;;;;;;;12.70;11.70;;;11.50;73.70;;;;;;4809435;29;20081;-67
2022/05/16 03:57:42;;;;;;;16.45;15.00;;;11.50;73.70;;;;;;4821457;29;20077;-67
2022/05/16 04:00:12;;;;;;;23.77;22.27;;;11.50;73.70;;;;;;4822468;29;20141;-67
2022/05/16 04:02:42;;;;;;;27.52;25.42;;;11.50;73.70;;;;;;4823046;29;20646;-67
2022/05/16 04:05:09;;;;;;;15.23;13.75;;;11.60;73.50;;;;;;4811517;29;20227;-67
2022/05/16 04:07:36;;;;;;;11.73;10.32;;;11.70;73.20;;;;;;4826574;29;20128;-67
2022/05/16 04:10:03;;;;;;;12.38;10.52;;;11.70;73.10;;;;;;4825826;29;20084;-67
2022/05/16 04:12:29;;;;;;;11.80;9.77;;;11.70;73.00;;;;;;4848724;29;20046;-67
2022/05/16 04:14:54;;;;;;;14.93;13.33;;;11.70;73.00;;;;;;4817223;29;20382;-67
2022/05/16 04:17:20;;;;;;;18.60;17.30;;;11.80;72.90;;;;;;4848530;29;20408;-67
2022/05/16 04:19:46;;;;;;;9.27;6.50;;;11.80;72.90;;;;;;4818804;29;20053;-67
2022/05/16 04:22:13;;;;;;;10.83;8.43;;;11.80;72.80;;;;;;4824061;29;20114;-67
2022/05/16 04:24:39;;;;;;;13.40;12.13;;;11.80;72.80;;;;;;4834376;29;20154;-67
2022/05/16 04:27:05;;;;;;;13.65;12.63;;;11.80;72.70;;;;;;4810215;29;20045;-67
2022/05/16 04:29:31;;;;;;;17.33;15.83;;;11.90;72.50;;;;;;4826671;29;20042;-67
2022/05/16 04:31:57;;;;;;;11.07;9.97;;;11.90;72.50;;;;;;4818189;29;20133;-67
2022/05/16 04:34:23;;;;;;;13.50;12.27;;;12.00;72.40;;;;;;4824464;29;20073;-68
2022/05/16 04:36:48;;;;;;;13.37;12.20;;;12.00;72.20;;;;;;4819405;29;20073;-67
2022/05/16 04:39:14;;;;;;;17.30;15.73;;;12.10;72.10;;;;;;4830958;29;20116;-67
2022/05/16 04:44:24;;;;;;;14.07;13.07;;;12.20;72.00;;;;;;4818970;29;20087;-68
2022/05/16 04:46:50;;;;;;;12.07;10.77;;;12.30;71.60;;;;;;4818958;29;20046;-68
2022/05/16 04:49:15;;;;;;;17.97;16.67;;;12.40;71.40;;;;;;4821762;29;20054;-67
2022/05/16 04:51:41;;;;;;;14.87;13.57;;;12.50;71.10;;;;;;4824272;29;20045;-67
2022/05/16 04:54:07;;;;;;;16.73;15.57;;;12.50;71.00;;;;;;4806697;29;20103;-67
2022/05/16 04:56:33;;;;;;;24.53;22.93;;;12.60;71.20;;;;;;4815717;29;20046;-68
2022/05/16 04:58:59;;;;;;;17.57;12.77;;;12.80;71.10;;;;;;4843833;29;20551;-67
2022/05/16 05:01:24;;;;;;;16.20;14.90;;;13.00;70.10;;;;;;4853074;29;20078;-67
2022/05/16 05:03:50;;;;;;;11.57;10.53;;;13.20;69.90;;;;;;4820952;29;20117;-67
2022/05/16 05:06:17;;;;;;;18.73;17.13;;;13.40;69.20;;;;;;4827538;29;20045;-67
2022/05/16 05:08:44;;;;;;;14.20;12.70;;;13.50;69.10;;;;;;4857846;29;20057;-67
2022/05/16 05:16:39;;;;;;;16.47;15.17;;;14.30;66.80;;;;;;4850794;29;20483;-67
2022/05/16 05:19:06;;;;;;;17.80;16.40;;;14.30;66.10;;;;;;4844142;29;20302;-67
2022/05/16 05:21:31;;;;;;;14.90;13.60;;;14.40;65.90;;;;;;4817786;29;20316;-67
2022/05/16 05:23:57;;;;;;;18.97;17.40;;;14.70;65.70;;;;;;4844068;29;20292;-68
2022/05/16 05:26:23;;;;;;;24.17;22.40;;;15.40;64.80;;;;;;4816853;29;20046;-67
2022/05/16 05:28:49;;;;;;;13.23;7.77;;;16.20;63.00;;;;;;4823573;29;20302;-68
2022/05/16 05:31:18;;;;;;;9.37;6.20;;;16.80;60.70;;;;;;4801768;29;20078;-68
2022/05/16 05:33:44;;;;;;;14.47;13.07;;;17.30;59.30;;;;;;4850365;29;20363;-68
2022/05/16 05:36:10;;;;;;;13.67;12.30;;;17.50;58.50;;;;;;4801015;29;20316;-68
2022/05/16 05:38:37;;;;;;;9.03;7.00;;;17.10;57.40;;;;;;4853126;29;20291;-68
2022/05/16 05:41:07;;;;;;;9.73;8.37;;;16.60;59.30;;;;;;4853868;29;20307;-67
2022/05/16 05:43:33;;;;;;;10.47;5.63;;;16.30;59.90;;;;;;4819682;29;20298;-68
2022/05/16 05:46:02;;;;;;;8.60;6.30;;;16.10;60.80;;;;;;4831233;29;20972;-68
2022/05/16 05:48:28;;;;;;;10.13;7.50;;;16.50;60.70;;;;;;4802915;29;20760;-68
2022/05/16 05:50:54;;;;;;;7.23;5.30;;;17.10;59.90;;;;;;4802694;29;20315;-68
2022/05/16 05:53:20;;;;;;;13.50;12.27;;;17.70;58.10;;;;;;4816475;29;20479;-67
2022/05/16 05:55:47;;;;;;;10.17;8.63;;;18.30;56.50;;;;;;4845746;29;20046;-68
2022/05/16 05:58:14;;;;;;;10.37;8.00;;;18.60;55.90;;;;;;4849320;29;20326;-68
2022/05/16 06:00:40;;;;;;;6.37;4.30;;;18.80;55.10;;;;;;4847591;29;20283;-68
2022/05/16 06:03:06;;;;;;;10.97;6.50;;;19.00;54.80;;;;;;4821490;29;20294;-68
2022/05/16 06:05:32;;;;;;;13.60;12.27;;;19.30;54.20;;;;;;4837208;29;20291;-68
2022/05/16 06:07:58;;;;;;;15.53;13.77;;;19.30;53.00;;;;;;4809308;29;20050;-68
2022/05/16 06:10:24;;;;;;;14.03;11.73;;;19.40;53.00;;;;;;4837893;29;20294;-68
2022/05/16 06:12:50;;;;;;;8.00;5.30;;;19.40;52.80;;;;;;4817348;29;20046;-68
2022/05/16 06:15:16;;;;;;;8.47;5.10;;;19.50;53.00;;;;;;4818275;29;20054;-68
2022/05/16 06:17:43;;;;;;;10.13;7.40;;;19.50;52.60;;;;;;4852092;29;20367;-68
2022/05/16 06:20:11;;;;;;;7.80;7.00;;;19.80;52.70;;;;;;4865942;29;20971;-68
2022/05/16 06:22:38;;;;;;;11.90;5.90;;;20.00;52.00;;;;;;4843936;29;20387;-68
2022/05/16 06:27:51;;;;;;;9.53;7.07;;;20.00;52.00;;;;;;4825861;29;20303;-68
2022/05/16 06:30:19;;;;;;;11.57;10.37;;;20.30;51.80;;;;;;4826605;29;20291;-68
2022/05/16 06:32:46;;;;;;;11.73;7.83;;;20.20;51.10;;;;;;4825610;29;20137;-68
2022/05/16 06:35:12;;;;;;;13.50;6.57;;;20.20;51.70;;;;;;4843345;29;20302;-68
2022/05/16 06:37:38;;;;;;;15.73;10.17;;;20.30;51.60;;;;;;4853955;29;20352;-68
2022/05/16 06:40:06;;;;;;;12.10;7.03;;;20.30;52.10;;;;;;4864313;29;20287;-68
2022/05/16 06:42:32;;;;;;;7.97;6.77;;;20.40;51.30;;;;;;4867905;29;20467;-68
2022/05/16 06:44:58;;;;;;;10.07;6.97;;;20.30;51.20;;;;;;4835365;29;20648;-68
2022/05/16 06:47:24;;;;;;;9.23;7.63;;;20.10;51.60;;;;;;4844870;29;20151;-68
2022/05/16 06:49:51;;;;;;;8.83;5.03;;;19.90;52.40;;;;;;4847410;29;20100;-68
2022/05/16 06:52:17;;;;;;;8.93;5.60;;;19.80;53.00;;;;;;4831716;29;20280;-68
2022/05/16 06:54:44;;;;;;;9.80;7.80;;;19.50;53.20;;;;;;4815182;29;20338;-68
2022/05/16 06:57:11;;;;;;;16.73;15.23;;;19.40;53.60;;;;;;4826565;29;20335;-68
2022/05/16 06:59:37;;;;;;;11.50;5.77;;;19.30;54.00;;;;;;4841885;29;20287;-68
2022/05/16 07:02:05;;;;;;;11.27;9.33;;;19.10;54.00;;;;;;4846743;29;20318;-68
2022/05/16 07:04:31;;;;;;;9.63;8.73;;;19.00;54.60;;;;;;4811296;29;20042;-68
2022/05/16 07:06:57;;;;;;;8.80;6.80;;;18.90;54.90;;;;;;4817860;29;20311;-68
2022/05/16 07:09:23;;;;;;;11.97;8.13;;;18.70;55.80;;;;;;4850923;29;20298;-68
2022/05/16 07:11:49;;;;;;;12.40;11.20;;;18.60;56.40;;;;;;4819233;29;20046;-68
2022/05/16 07:14:15;;;;;;;12.30;10.30;;;18.60;56.60;;;;;;4817421;29;20379;-68
2022/05/16 07:16:41;;;;;;;10.23;7.53;;;18.50;55.50;;;;;;4817833;29;20086;-68
2022/05/16 07:19:07;;;;;;;10.60;8.70;;;18.50;55.50;;;;;;4849825;29;20042;-68
2022/05/16 07:21:33;;;;;;;9.87;7.00;;;18.40;56.10;;;;;;4801855;29;20097;-68
2022/05/16 07:23:59;;;;;;;8.23;7.43;;;18.40;56.50;;;;;;4839820;29;20093;-68
2022/05/16 07:29:09;;;;;;;9.80;5.93;;;18.60;56.20;;;;;;4828403;29;20139;-68
2022/05/16 07:31:36;;;;;;;11.77;8.30;;;18.70;56.70;;;;;;4835353;29;20319;-68
2022/05/16 07:34:02;;;;;;;11.93;7.90;;;18.70;56.10;;;;;;4852598;29;20043;-68
2022/05/16 07:36:28;;;;;;;9.27;7.60;;;18.90;56.00;;;;;;4833671;29;20343;-68
2022/05/16 07:38:53;;;;;;;10.30;6.83;;;19.00;55.60;;;;;;4834169;29;20820;-68
2022/05/16 07:41:19;;;;;;;10.23;6.30;;;19.10;55.40;;;;;;4835536;29;20132;-68
2022/05/16 07:43:45;;;;;;;15.20;13.57;;;19.20;55.90;;;;;;4820053;29;20049;-68
2022/05/16 07:46:11;;;;;;;9.23;6.30;;;19.40;55.60;;;;;;4853303;29;20075;-68
2022/05/16 07:48:37;;;;;;;13.43;8.87;;;19.60;55.60;;;;;;4819519;29;20042;-68
2022/05/16 07:51:03;;;;;;;8.20;7.13;;;19.80;55.00;;;;;;4835349;29;20049;-68
2022/05/16 07:53:29;;;;;;;10.70;9.10;;;19.90;54.70;;;;;;4848395;29;20287;-68
2022/05/16 07:55:56;;;;;;;9.17;6.30;;;20.10;54.40;;;;;;4821183;29;20042;-69
2022/05/16 07:58:23;;;;;;;9.07;6.33;;;20.30;54.30;;;;;;4837772;29;20299;-68
2022/05/16 08:00:50;;;;;;;10.67;7.07;;;20.40;53.50;;;;;;4833594;29;20283;-69
2022/05/16 08:03:18;;;;;;;9.33;6.77;;;20.50;53.20;;;;;;4826025;29;20053;-68
2022/05/16 08:05:44;;;;;;;13.27;7.10;;;20.50;53.10;;;;;;4845249;29;20694;-68
2022/05/16 08:10:57;;;;;;;9.33;6.37;;;20.30;53.80;;;;;;4815467;29;20057;-68
2022/05/16 08:13:23;;;;;;;11.43;7.97;;;20.20;53.90;;;;;;4847833;29;20496;-68
2022/05/16 08:15:49;;;;;;;13.20;6.93;;;20.10;54.20;;;;;;4844361;29;20038;-68
2022/05/16 08:18:15;;;;;;;12.13;11.07;;;20.20;54.90;;;;;;4830212;29;20130;-68
2022/05/16 08:20:43;;;;;;;12.53;9.97;;;20.20;53.90;;;;;;4810481;29;20042;-69
2022/05/16 08:23:11;;;;;;;9.73;8.83;;;20.30;54.80;;;;;;4828385;29;20058;-69
2022/05/16 08:25:37;;;;;;;15.43;9.20;;;20.40;54.10;;;;;;4843389;29;20050;-69
2022/05/16 08:28:03;;;;;;;11.57;8.50;;;20.50;54.20;;;;;;4815769;29;20617;-68
2022/05/16 08:30:29;;;;;;;10.90;9.97;;;20.60;54.10;;;;;;4830740;29;20508;-69
2022/05/16 08:33:02;;;;;;;10.27;9.30;;;20.70;53.80;;;;;;4843547;29;20042;-68
2022/05/16 08:35:29;;;;;;;12.73;9.87;;;20.90;53.90;;;;;;4797739;29;20046;-69
2022/05/16 08:41:11;;;;;;;9.87;8.93;;;21.00;53.10;;;;;;4824765;29;20822;-69
2022/05/16 08:44:09;;;;;;;12.87;10.33;;;21.20;53.20;;;;;;4836883;29;20046;-68
2022/05/16 08:46:36;;;;;;;11.43;10.33;;;21.40;54.10;;;;;;4818401;29;20106;-69
2022/05/16 08:49:21;;;;;;;12.77;11.70;;;21.70;53.60;;;;;;4813888;29;20410;-69
2022/05/16 08:52:04;;;;;;;11.83;10.90;;;22.00;52.50;;;;;;4847099;29;20048;-69
2022/05/16 08:54:42;;;;;;;10.63;9.57;;;22.20;52.30;;;;;;4815724;29;20049;-69
2022/05/16 08:57:12;;;;;;;10.50;9.27;;;22.40;50.80;;;;;;4844843;29;20069;-69
2022/05/16 08:59:41;;;;;;;12.13;9.27;;;22.50;51.10;;;;;;4839649;29;20569;-69
2022/05/16 09:02:23;;;;;;;11.17;10.17;;;22.80;51.40;;;;;;4817250;29;20050;-69
2022/05/16 09:04:58;;;;;;;18.07;13.27;;;23.10;50.00;;;;;;4840767;29;20077;-69
2022/05/16 09:07:32;;;;;;;12.03;9.00;;;23.40;49.90;;;;;;4818005;29;20792;-69
2022/05/16 09:09:57;;;;;;;12.67;8.63;;;23.60;49.10;;;;;;4813398;29;20038;-69
2022/05/16 09:12:51;;;;;;;10.70;9.03;;;23.80;49.30;;;;;;4850109;29;20111;-69
2022/05/16 09:15:40;;;;;;;11.43;8.40;;;24.10;48.20;;;;;;4814262;29;20054;-69
2022/05/16 09:18:10;;;;;;;7.53;6.67;;;24.10;47.40;;;;;;4831594;29;20121;-69
2022/05/16 09:20:51;;;;;;;11.60;10.50;;;24.10;47.40;;;;;;4843433;29;20043;-69
2022/05/16 09:23:23;;;;;;;12.17;9.73;;;24.20;47.70;;;;;;4813840;29;20050;-69
2022/05/16 09:26:10;;;;;;;10.50;8.97;;;24.20;47.20;;;;;;4841969;29;20106;-69
2022/05/16 09:29:14;;;;;;;11.87;10.60;;;24.00;48.40;;;;;;4837451;29;20046;-69
2022/05/16 09:31:43;;;;;;;9.57;8.00;;;23.70;48.20;;;;;;4819217;29;20400;-69
2022/05/16 09:34:10;;;;;;;18.20;16.10;;;23.70;49.20;;;;;;4835946;29;20055;-69
2022/05/16 09:36:45;;;;;;;12.77;11.47;;;23.80;49.10;;;;;;4819640;29;20050;-69
2022/05/16 09:39:15;;;;;;;14.10;12.70;;;23.80;49.20;;;;;;4833532;29;20054;-70
2022/05/16 09:41:44;;;;;;;12.17;11.27;;;23.90;49.50;;;;;;4837526;29;20419;-69
2022/05/16 09:44:18;;;;;;;11.17;9.67;;;24.00;49.20;;;;;;4827609;29;20049;-69
2022/05/16 09:46:44;;;;;;;11.10;8.98;;;24.00;49.30;;;;;;4820757;29;20037;-69
2022/05/16 09:49:25;;;;;;;13.30;12.03;;;24.10;48.60;;;;;;4844773;29;20057;-69
2022/05/16 09:51:57;;;;;;;14.30;9.13;;;24.30;47.50;;;;;;4829473;29;20053;-69
2022/05/16 09:54:35;;;;;;;13.53;12.20;;;24.40;47.90;;;;;;4819149;29;20038;-69
2022/05/16 09:57:01;;;;;;;12.87;10.90;;;24.50;47.20;;;;;;4826105;29;20144;-69
2022/05/16 09:59:53;;;;;;;9.80;8.03;;;24.70;47.30;;;;;;4816183;29;20084;-69
2022/05/16 10:02:31;;;;;;;9.50;7.90;;;24.90;47.20;;;;;;4814546;29;20056;-67
2022/05/16 10:05:23;;;;;;;9.17;8.10;;;25.10;47.50;;;;;;4844982;29;20041;-69
2022/05/16 10:07:57;;;;;;;10.60;6.97;;;25.10;46.10;;;;;;4816325;29;20042;-69
2022/05/16 10:10:29;;;;;;;11.30;9.90;;;25.10;46.40;;;;;;4800281;29;20046;-69
2022/05/16 10:12:57;;;;;;;11.67;9.90;;;25.10;46.90;;;;;;4819543;29;20472;-69
2022/05/16 10:15:22;;;;;;;12.07;10.87;;;24.90;47.00;;;;;;4846870;29;20065;-69
2022/05/16 10:17:52;;;;;;;13.77;9.90;;;24.80;47.00;;;;;;4845095;29;20046;-69
2022/05/16 10:20:36;;;;;;;9.20;7.77;;;24.70;47.60;;;;;;4827871;29;20070;-69
2022/05/16 10:23:09;;;;;;;8.32;7.50;;;24.60;46.90;;;;;;4829109;29;20068;-69
2022/05/16 10:25:41;;;;;;;10.70;9.53;;;24.60;47.30;;;;;;4846012;29;20103;-69
2022/05/16 10:28:14;;;;;;;13.50;9.30;;;24.50;47.10;;;;;;4797508;29;20063;-69
2022/05/16 10:33:28;;;;;;;13.52;8.85;;;24.60;47.30;;;;;;4842161;29;20061;-69
2022/05/16 10:35:59;;;;;;;10.97;9.87;;;24.70;47.40;;;;;;4843614;29;20053;-69
2022/05/16 10:38:46;;;;;;;14.33;12.77;;;24.80;47.30;;;;;;4846942;29;20034;-69
2022/05/16 10:41:22;;;;;;;15.13;13.60;;;25.00;46.70;;;;;;4813181;29;20107;-69
2022/05/16 10:44:08;;;;;;;19.43;13.10;;;25.10;46.40;;;;;;4812532;29;20047;-69
2022/05/16 10:46:37;;;;;;;17.03;15.50;;;25.40;47.10;;;;;;4831748;29;20736;-69
2022/05/16 10:49:10;;;;;;;15.83;14.50;;;25.60;46.50;;;;;;4811002;29;20146;-69
2022/05/16 10:51:57;;;;;;;22.60;20.63;;;25.90;46.40;;;;;;4818062;29;20034;-70
2022/05/16 10:54:25;;;;;;;14.13;12.67;;;26.00;45.80;;;;;;4828872;29;20518;-69
2022/05/16 10:57:07;;;;;;;12.87;11.47;;;26.20;46.50;;;;;;4801017;29;20050;-69
2022/05/16 10:59:59;;;;;;;13.03;9.50;;;26.40;45.50;;;;;;4817173;29;20145;-69
2022/05/16 11:02:42;;;;;;;13.93;8.87;;;26.80;45.00;;;;;;4831405;29;20054;-69
2022/05/16 11:05:47;;;;;;;13.53;8.53;;;27.10;43.40;;;;;;4845738;29;20057;-70
2022/05/16 11:08:20;;;;;;;;;;;27.10;43.00;;;;;;4834395;29;20527;-70
2022/05/16 11:11:12;;;;;;;17.40;15.90;;;26.90;42.90;;;;;;4847451;29;19925;-69
2022/05/16 11:13:56;;;;;;;14.93;13.53;;;26.70;43.10;;;;;;4823930;29;20054;-69
2022/05/16 11:16:33;;;;;;;18.60;17.10;;;26.60;44.00;;;;;;4833774;29;20050;-69
2022/05/16 11:19:25;;;;;;;18.63;17.17;;;26.60;43.60;;;;;;4848807;29;20049;-70
2022/05/16 11:22:00;;;;;;;36.43;34.20;;;26.60;43.90;;;;;;4803435;29;20095;-70
2022/05/16 11:24:49;;;;;;;31.00;29.07;;;26.70;44.60;;;;;;4813408;29;20135;-70
2022/05/16 11:27:39;;;;;;;37.60;34.83;;;26.90;44.10;;;;;;4815239;29;20043;-70
2022/05/16 11:30:42;;;;;;;19.40;17.57;;;26.90;44.10;;;;;;4816371;29;20046;-69
2022/05/16 11:33:22;;;;;;;22.87;20.93;;;26.80;44.30;;;;;;4818701;29;20113;-70
2022/05/16 11:35:51;;;;;;;19.70;17.80;;;26.50;44.30;;;;;;4834553;29;20081;-70
2022/05/16 11:38:25;;;;;;;21.77;19.97;;;26.20;45.00;;;;;;4808827;29;20042;-70
2022/05/16 11:41:13;;;;;;;23.40;21.52;;;26.20;45.30;;;;;;4802343;29;20494;-70
2022/05/16 11:43:49;;;;;;;21.77;19.83;;;26.20;46.00;;;;;;4851156;29;20893;-70
2022/05/16 11:46:37;;;;;;;22.43;19.83;;;26.20;45.60;;;;;;4814102;29;20038;-70
2022/05/16 11:49:19;;;;;;;20.60;19.10;;;26.20;45.50;;;;;;4845999;29;20038;-70
2022/05/16 11:51:55;;;;;;;23.60;21.73;;;26.30;45.90;;;;;;4817145;29;20597;-69
2022/05/16 11:54:31;;;;;;;23.90;21.77;;;26.40;46.00;;;;;;4817675;29;20584;-70
2022/05/16 12:03:12;;;;;;;24.53;22.60;;;26.00;45.80;;;;;;4832422;29;20050;-69
2022/05/16 12:05:44;;;;;;;31.97;29.53;;;25.80;45.80;;;;;;4817989;29;20260;-69
2022/05/16 12:08:28;;;;;;;34.03;31.43;;;25.70;46.10;;;;;;4817405;29;20046;-70
2022/05/16 12:11:16;;;;;;;23.38;21.52;;;25.60;46.40;;;;;;4846040;29;20519;-70
2022/05/16 12:13:59;;;;;;;29.77;27.57;;;25.60;47.00;;;;;;4821762;29;20043;-69
2022/05/16 12:16:28;;;;;;;35.83;33.83;;;25.70;47.70;;;;;;4826976;29;20153;-70
2022/05/16 12:19:21;;;;;;;31.87;29.67;;;25.70;47.70;;;;;;4850449;29;20089;-69
2022/05/16 12:22:00;;;;;;;36.30;34.07;;;25.70;47.00;;;;;;4844296;29;20508;-69
2022/05/16 12:24:31;;;;;;;62.27;58.10;;;25.80;46.50;;;;;;4848348;29;20050;-70
2022/05/16 12:27:06;;;;;;;31.97;30.00;;;25.60;47.40;;;;;;4846760;29;20046;-69
2022/05/16 12:29:49;;;;;;;32.67;30.42;;;25.50;47.30;;;;;;4811638;29;20057;-70
2022/05/16 12:32:46;;;;;;;40.80;38.40;;;25.80;47.40;;;;;;4818280;29;20078;-70
2022/05/16 12:35:26;;;;;;;30.10;28.13;;;25.90;46.50;;;;;;4817809;29;20054;-70
2022/05/16 12:37:53;;;;;;;37.10;34.90;;;26.10;46.00;;;;;;4817794;29;20046;-70
2022/05/16 12:40:57;;;;;;;32.33;30.07;;;26.20;45.60;;;;;;4850439;29;20112;-70
2022/05/16 12:44:00;;;;;;;39.53;37.07;;;26.40;45.40;;;;;;4822162;29;20058;-70
2022/05/16 12:46:54;;;;;;;43.70;40.90;;;26.50;45.60;;;;;;4849980;29;20061;-70
2022/05/16 12:49:35;;;;;;;44.13;41.10;;;26.70;44.70;;;;;;4812038;29;20745;-70
2022/05/16 12:52:22;;;;;;;47.37;43.87;;;26.80;44.60;;;;;;4840858;29;20089;-70
2022/05/16 12:55:11;;;;;;;44.50;41.73;;;26.80;45.00;;;;;;4832147;29;20539;-70
2022/05/16 12:58:01;;;;;;;47.97;44.73;;;26.90;45.30;;;;;;4808381;29;20051;-70
2022/05/16 13:00:51;;;;;;;48.77;45.43;;;27.10;45.00;;;;;;4812926;29;20110;-70
2022/05/16 13:03:38;;;;;;;46.57;43.67;;;27.20;45.60;;;;;;4817307;29;20472;-70
2022/05/16 13:06:31;;;;;;;44.70;41.37;;;27.40;45.60;;;;;;4819626;29;20045;-70
2022/05/16 13:09:40;;;;;;;56.27;52.57;;;27.70;45.30;;;;;;4843022;29;20047;-70
2022/05/16 13:12:33;;;;;;;53.37;49.67;;;27.70;44.80;;;;;;4806267;29;20254;-70
2022/05/16 13:15:01;;;;;;;54.93;51.43;;;27.70;46.30;;;;;;4841651;29;20479;-70
2022/05/16 13:18:08;;;;;;;62.33;58.40;;;27.60;45.80;;;;;;4845148;29;20419;-70
2022/05/16 13:20:42;;;;;;;74.50;69.93;;;27.60;46.60;;;;;;4849906;29;20416;-70
2022/05/16 13:23:08;;;;;;;;;;;27.40;47.80;;;;;;4825485;29;20416;-70
2022/05/16 13:29:21;;;;;;;63.17;59.17;;;27.40;48.10;;;;;;4847395;29;19925;-70
2022/05/16 13:31:07;;;;;;;64.20;60.27;;;27.40;47.40;;;;;;4844867;29;20061;-70
2022/05/16 13:33:39;;;;;;;97.13;90.43;;;27.20;47.40;;;;;;4829947;29;20041;-70
2022/05/16 13:36:21;;;;;;;82.07;75.40;;;26.80;47.50;;;;;;4795605;29;20523;-70